Date,TemperatureHighF,TemperatureAvgF,TemperatureLowF,DewpointHighF,DewpointAvgF,DewpointLowF,HumidityHigh,HumidityAvg,HumidityLow,PressureMaxIn,PressureMinIn,WindSpeedMaxMPH,WindSpeedAvgMPH,GustSpeedMaxMPH,PrecipitationSumIn
2013-8-1,-200,0,200,-100,-100,-100,0,0,100,0.00,40.00,0,-889,0,0.00
2013-8-2,-200,0,200,-100,-100,-100,0,0,100,0.00,40.00,0,-889,0,0.00
2013-8-3,-200,0,200,-100,-100,-100,0,0,100,0.00,40.00,0,-889,0,0.00
2013-8-4,-200,0,200,-100,-100,-100,0,0,100,0.00,40.00,0,-889,0,0.00
2013-8-5,-200,0,200,-100,-100,-100,0,0,100,0.00,40.00,0,-889,0,0.00
2013-8-6,-200,0,200,-100,-100,-100,0,0,100,0.00,40.00,0,-889,0,0.00
2013-8-7,-200,0,200,-100,-100,-100,0,0,100,0.00,40.00,0,-889,0,0.00
2013-8-8,-200,0,200,-100,-100,-100,0,0,100,0.00,40.00,0,-889,0,0.00
2013-8-9,-200,0,200,-100,-100,-100,0,0,100,0.00,40.00,0,-889,0,0.00
2013-8-10,-200,0,200,-100,-100,-100,0,0,100,0.00,40.00,0,-889,0,0.00
2013-8-11,-200,0,200,-100,-100,-100,0,0,100,0.00,40.00,0,-889,0,0.00
2013-8-12,-200,0,200,-100,-100,-100,0,0,100,0.00,40.00,0,-889,0,0.00
2013-8-13,-200,0,200,-100,-100,-100,0,0,100,0.00,40.00,0,-889,0,0.00
2013-8-14,-200,0,200,-100,-100,-100,0,0,100,0.00,40.00,0,-889,0,0.00
2013-8-15,-200,0,200,-100,-100,-100,0,0,100,0.00,40.00,0,-889,0,0.00
2013-8-16,-200,0,200,-100,-100,-100,0,0,100,0.00,40.00,0,-889,0,0.00
2013-8-19,-200,0,200,-100,-100,-100,0,0,100,0.00,40.00,0,-999,0,0.00
2013-8-20,84,79,74,-27,-30,-32,1,1,1,0.00,40.00,0,-999,0,0.00
2013-8-21,83,41,70,72,-44,-100,81,14,1,28.56,28.55,12,-362,17,0.00
2013-8-22,-200,0,200,-100,-100,-100,0,0,100,0.00,40.00,11,2,16,0.00
2013-8-23,-200,0,200,-100,-100,-100,0,0,100,0.00,40.00,7,1,12,0.00
2013-8-24,-200,0,200,-100,-100,-100,0,0,100,0.00,40.00,11,6,19,0.00
2013-8-25,-200,0,200,-100,-100,-100,0,0,100,0.00,40.00,11,6,18,0.00
2013-8-26,-200,0,200,-100,-100,-100,0,0,100,0.00,40.00,10,5,16,0.00
2013-8-27,-200,0,200,-100,-100,-100,0,0,100,0.00,40.00,11,4,16,0.00
2013-8-28,-200,0,200,-100,-100,-100,0,0,100,0.00,40.00,7,2,10,0.00
2013-8-29,-200,0,200,-100,-100,-100,0,0,100,0.00,40.00,8,3,13,0.00
2013-8-30,-200,0,200,-100,-100,-100,0,0,100,0.00,40.00,8,3,12,0.00
2013-8-31,-200,0,200,-100,-100,-100,0,0,100,0.00,40.00,6,1,11,0.00